Terminal Aerodrome Forecast
Issued by NWS Charleston, WV

Current Version | Previous Version | Graphics & Text | Print | Product List | Glossary On
Versions: 1 2 3 4 5 6 7 8 9 10 11 12 13 14 15 16 17 18 19 20 21 22 23 24
000
FTUS41 KRLX 040240 AAA
TAFCRW
TAF AMD
KCRW 040240Z 0403/0424 VRB03KT 6SM BR BKN035
      TEMPO 0403/0406 3SM BR SCT035
     FM040600 00000KT 6SM BR BKN015
      TEMPO 0406/0410 3SM BR SCT015 SCT035
     FM041000 00000KT 5SM BR BKN015
     FM041400 VRB03KT P6SM BKN025
     FM042000 24006KT P6SM SHRA VCTS BKN040CB
     FM042300 25004KT 5SM SHRA BR VCTS OVC035CB=

USA.gov is the U.S. government's official web portal to all federal, state and local government web resources and services.